ADDS METAR Data INFO
IDs: Format: Raw Decoded Include TAF

Data at: 2234 UTC 22 Aug 2017

K11R 222215Z AUTO 12008KT 10SM CLR 36/18 A2998 RMK AO2 T03610178
K11R 222155Z AUTO 12009KT 10SM CLR 36/18 A2998 RMK AO2 T03620184
K11R 222135Z AUTO 15004KT 10SM SCT065 SCT100 36/19 A2999 RMK AO2 T03610187
K11R 222115Z AUTO 15008KT 10SM SCT065 SCT100 SCT120 37/19 A2999 RMK AO2 LTG DSNT E T03660191
K11R 222055Z AUTO 13008G14KT 10SM CLR 37/20 A3000 RMK AO2 T03650195
K11R 222035Z AUTO 12005KT 10SM CLR 36/19 A3001 RMK AO2 T03630192
K11R 222015Z AUTO 15006KT 10SM SCT060 SCT075 SCT085 36/20 A3002 RMK AO2 T03580202
K11R 221955Z AUTO 00000KT 10SM BKN060 BKN075 36/20 A3003 RMK AO2 LTG DSNT SE T03560202
K11R 221935Z AUTO 10004KT 10SM SCT060 SCT070 35/19 A3004 RMK AO2 T03510192
K11R 221915Z AUTO 01003KT 10SM BKN070 BKN085 35/20 A3004 RMK AO2 T03490197
K11R 221855Z AUTO 00000KT 10SM BKN070 35/20 A3004 RMK AO2 T03510198
K11R 221835Z AUTO 13004KT 10SM SCT070 SCT095 35/20 A3005 RMK AO2 T03480198
K11R 221815Z AUTO 20003KT 10SM SCT050 35/20 A3006 RMK AO2 T03470196
K11R 221755Z AUTO 00000KT 10SM SCT050 34/20 A3007 RMK AO2 T03400201 10343 20226
K11R 221735Z AUTO 19006KT 10SM SCT048 34/21 A3007 RMK AO2 T03380205
K11R 221715Z AUTO 36003KT 10SM CLR 33/21 A3008 RMK AO2 T03320210
K11R 221655Z AUTO 00000KT 10SM CLR 33/21 A3009 RMK AO2 T03290211
K11R 221635Z AUTO 00000KT 10SM CLR 32/22 A3009 RMK AO2 T03220216
K11R 221615Z AUTO 17004KT 10SM CLR 32/22 A3010 RMK AO2 T03220215
K11R 221555Z AUTO 25005KT 10SM SCT029 SCT035 32/22 A3010 RMK AO2 T03160222
K11R 221535Z AUTO 21003KT 10SM SCT029 SCT035 31/23 A3009 RMK AO2 T03110232
K11R 221515Z AUTO 24003KT 10SM SCT019 30/23 A3009 RMK AO2 T02990234
K11R 221455Z AUTO 00000KT 10SM SCT017 30/24 A3009 RMK AO2 T02960241
K11R 221435Z AUTO 00000KT 10SM SCT019 29/24 A3009 RMK AO2 T02900244
K11R 221415Z AUTO 00000KT 10SM BKN019 28/25 A3009 RMK AO2 T02800251
K11R 221355Z AUTO 00000KT 10SM BKN017 27/25 A3008 RMK AO2 T02700252
K11R 221335Z AUTO 00000KT 10SM CLR 26/25 A3008 RMK AO2 T02620253
K11R 221315Z AUTO 00000KT 10SM CLR 25/25 A3007 RMK AO2 T02540249
K11R 221255Z AUTO 00000KT 10SM CLR 24/24 A3006 RMK AO2 T02430240
K11R 221235Z AUTO 00000KT 7SM CLR 24/23 A3005 RMK AO2 T02350231
K11R 221215Z AUTO 00000KT 7SM CLR 23/23 A3005 RMK AO2 T02280226
K11R 221155Z AUTO 00000KT 7SM SCT019 23/22 A3005 RMK AO2 T02270224 10268 20227
K11R 221135Z AUTO 00000KT 7SM CLR 23/23 A3004 RMK AO2 T02300227
K11R 221115Z AUTO 00000KT 10SM CLR 23/23 A3004 RMK AO2 T02300226
K11R 221055Z AUTO 00000KT 10SM CLR 23/23 A3003 RMK AO2 T02320228
K11R 221035Z AUTO 00000KT 10SM CLR 24/23 A3003 RMK AO2 T02360231
K11R 221015Z AUTO 00000KT 10SM CLR 23/23 A3003 RMK AO2 T02330228
K11R 220955Z AUTO 00000KT 10SM CLR 24/23 A3003 RMK AO2 T02370230
K11R 220935Z AUTO 00000KT 10SM CLR 24/24 A3004 RMK AO2 T02420235
K11R 220915Z AUTO 00000KT 10SM CLR 24/24 A3004 RMK AO2 T02440236
K11R 220855Z AUTO 00000KT 10SM CLR 24/23 A3005 RMK AO2 T02400230
K11R 220835Z AUTO 00000KT 10SM CLR 25/24 A3005 RMK AO2 T02480235
K11R 220815Z AUTO 00000KT 10SM CLR 25/24 A3005 RMK AO2 T02520235
K11R 220755Z AUTO 00000KT 10SM CLR 25/24 A3005 RMK AO2 T02520235
K11R 220735Z AUTO 00000KT 10SM CLR 26/23 A3006 RMK AO2 T02580231
K11R 220715Z AUTO 00000KT 10SM CLR 26/23 A3007 RMK AO2 T02620232
K11R 220655Z AUTO 00000KT 10SM CLR 27/23 A3008 RMK AO2 T02650233
K11R 220635Z AUTO 20003KT 10SM CLR 27/23 A3008 RMK AO2 T02650233
K11R 220615Z AUTO 18003KT 10SM CLR 27/24 A3009 RMK AO2 T02680235
K11R 220555Z AUTO 00000KT 10SM CLR 27/23 A3009 RMK AO2 T02670233 10336 20267 403610236
K11R 220535Z AUTO 00000KT 10SM CLR 27/23 A3009 RMK AO2 T02700234
K11R 220515Z AUTO 15004KT 10SM CLR 28/23 A3010 RMK AO2 T02750233
K11R 220455Z AUTO 15004KT 10SM CLR 28/23 A3010 RMK AO2 T02790231
K11R 220435Z AUTO 15005KT 10SM CLR 28/23 A3010 RMK AO2 T02810230
K11R 220415Z AUTO 15006KT 10SM CLR 28/23 A3010 RMK AO2 T02820228
K11R 220355Z AUTO 15004KT 10SM CLR 29/23 A3010 RMK AO2 T02860226
K11R 220335Z AUTO 14004KT 10SM CLR 29/23 A3009 RMK AO2 T02870227
K11R 220315Z AUTO 14004KT 10SM CLR 29/23 A3008 RMK AO2 T02920229
K11R 220255Z AUTO 12005KT 10SM CLR 29/23 A3007 RMK AO2 T02920230
K11R 220235Z AUTO 11007KT 10SM CLR 30/23 A3007 RMK AO2 T02960227
K11R 220215Z AUTO 11006KT 10SM CLR 30/22 A3006 RMK AO2 T03020222
K11R 220155Z AUTO 11006KT 10SM CLR 31/22 A3005 RMK AO2 T03050218
K11R 220135Z AUTO 12004KT 10SM CLR 31/22 A3004 RMK AO2 T03060215
K11R 220115Z AUTO 13004KT 10SM CLR 31/21 A3003 RMK AO2 T03110212
K11R 220055Z AUTO 13005KT 10SM CLR 32/21 A3003 RMK AO2 T03190210
K11R 220035Z AUTO 12006KT 10SM CLR 33/21 A3002 RMK AO2 T03260207
K11R 220015Z AUTO 12006KT 10SM CLR 33/21 A3002 RMK AO2 LTG DSNT E T03320210
K11R 212355Z AUTO 12009KT 10SM CLR 34/21 A3002 RMK AO2 T03360206 10361 20326
K11R 212335Z AUTO 12008KT 10SM CLR 34/20 A3002 RMK AO2 T03410202
K11R 212315Z AUTO 10009KT 10SM CLR 34/21 A3002 RMK AO2 T03420208
K11R 212255Z AUTO 11007KT 10SM CLR 35/21 A3002 RMK AO2 LTG DSNT NW T03450209
K11R 212235Z AUTO 11009KT 10SM CLR 35/21 A3002 RMK AO2 T03490207
K11R 212215Z AUTO 11008G15KT 10SM SCT050 SCT090 35/21 A3002 RMK AO2 T03490205
K11R 212155Z AUTO 14011G14KT 10SM SCT050 SCT070 SCT090 36/21 A3002 RMK AO2 T03550205
K11R 212135Z AUTO 11008KT 10SM SCT060 SCT080 36/21 A3002 RMK AO2 T03590210
K11R 212115Z AUTO 13006G09KT 10SM SCT060 SCT080 36/19 A3003 RMK AO2 T03550192
K11R 212055Z AUTO 13005KT 10SM SCT060 SCT080 35/20 A3003 RMK AO2 T03520199
K11R 212035Z AUTO 19005KT 10SM SCT060 35/19 A3003 RMK AO2 T03540192
K11R 212015Z AUTO 19004KT 10SM SCT070 SCT085 35/20 A3004 RMK AO2 T03510203
K11R 211955Z AUTO 00000KT 10SM SCT048 SCT060 34/20 A3006 RMK AO2 T03420204
K11R 211935Z AUTO 00000KT 10SM SCT048 SCT060 35/21 A3005 RMK AO2 LTG DSNT SE T03450212
K11R 211915Z AUTO 08005KT 10SM SCT046 34/22 A3006 RMK AO2 LTG DSNT SE T03390216
K11R 211855Z AUTO 10006KT 10SM BKN046 33/22 A3007 RMK AO2 T03340215
K11R 211835Z AUTO 15004KT 10SM SCT046 33/22 A3007 RMK AO2 T03320215
K11R 211815Z AUTO 13007KT 10SM SCT046 SCT055 33/21 A3007 RMK AO2 T03290214
K11R 211755Z AUTO 14006KT 10SM SCT046 BKN055 BKN070 33/22 A3007 RMK AO2 T03320218 10338 20236
K11R 211735Z AUTO 14003KT 10SM SCT044 SCT060 33/22 A3008 RMK AO2 T03330219
K11R 211715Z AUTO 18003KT 10SM SCT042 SCT060 33/22 A3009 RMK AO2 T03300217
K11R 211655Z AUTO 17008KT 10SM SCT040 SCT047 SCT055 33/22 A3009 RMK AO2 T03340220
K11R 211635Z AUTO 21006KT 10SM SCT040 SCT047 BKN055 32/22 A3009 RMK AO2 T03230223
K11R 211615Z AUTO 14004KT 10SM SCT030 SCT039 SCT046 32/22 A3010 RMK AO2 T03150222
K11R 211555Z AUTO 00000KT 10SM SCT030 SCT039 BKN046 32/24 A3010 RMK AO2 T03160236
K11R 211535Z AUTO 14005KT 10SM CLR 31/24 A3010 RMK AO2 T03130240
K11R 211515Z AUTO 18004KT 10SM SCT020 SCT035 SCT050 30/24 A3010 RMK AO2 T02980242
K11R 211455Z AUTO 00000KT 10SM BKN020 OVC030 30/25 A3010 RMK AO2 T02960245
K11R 211435Z AUTO 00000KT 10SM SCT022 SCT030 29/25 A3010 RMK AO2 T02940246
K11R 211415Z AUTO 00000KT 10SM SCT022 SCT026 SCT035 29/25 A3009 RMK AO2 T02880253
K11R 211355Z AUTO 00000KT 10SM SCT022 SCT026 28/25 A3009 RMK AO2 T02770253
K11R 211335Z AUTO 00000KT 10SM SCT024 27/25 A3008 RMK AO2 T02680254
K11R 211315Z AUTO 00000KT 10SM SCT022 26/25 A3008 RMK AO2 T02600252
K11R 211255Z AUTO 00000KT 10SM SCT022 25/25 A3008 RMK AO2 T02500246
K11R 211235Z AUTO 00000KT 10SM BKN022 25/24 A3007 RMK AO2 T02460242
K11R 211215Z AUTO 00000KT 7SM CLR 24/24 A3007 RMK AO2 T02380235
K11R 211155Z AUTO 00000KT 7SM CLR 24/24 A3007 RMK AO2 T02400236 10276 20240
K11R 211135Z AUTO 00000KT 10SM CLR 24/24 A3006 RMK AO2 T02410236
K11R 211115Z AUTO 00000KT 10SM CLR 24/24 A3006 RMK AO2 T02410235
K11R 211055Z AUTO 00000KT 10SM CLR 24/24 A3006 RMK AO2 LTG DSNT W T02410235
K11R 211035Z AUTO 00000KT 10SM CLR 25/24 A3006 RMK AO2 T02470239